createdAt,value
2018-02-22T00:01:16.762Z,27.60
2018-02-22T00:03:44.281Z,27.27
2018-02-22T00:06:11.775Z,29.53
2018-02-22T00:08:39.350Z,29.77
2018-02-22T00:11:06.854Z,27.83
2018-02-22T00:13:34.360Z,28.07
2018-02-22T00:16:01.899Z,29.33
2018-02-22T00:18:30.220Z,26.47
2018-02-22T00:20:57.709Z,28.13
2018-02-22T00:23:25.209Z,30.17
2018-02-22T00:25:53.044Z,26.67
2018-02-22T00:28:21.311Z,29.73
2018-02-22T00:30:48.852Z,28.40
2018-02-22T00:33:16.362Z,29.90
2018-02-22T00:35:43.876Z,28.10
2018-02-22T00:38:11.403Z,27.40
2018-02-22T00:40:38.896Z,30.17
2018-02-22T00:43:06.423Z,29.73
2018-02-22T00:45:33.920Z,26.67
2018-02-22T00:48:02.214Z,27.90
2018-02-22T00:50:29.741Z,29.33
2018-02-22T00:52:57.267Z,27.00
2018-02-22T00:55:24.787Z,28.80
2018-02-22T00:57:53.056Z,29.17
2018-02-22T01:00:21.356Z,29.50
2018-02-22T01:02:48.875Z,28.77
2018-02-22T01:05:17.159Z,28.27
2018-02-22T01:07:45.455Z,29.03
2018-02-22T01:10:12.955Z,28.70
2018-02-22T01:12:40.525Z,30.10
2018-02-22T01:15:08.184Z,28.70
2018-02-22T01:17:35.715Z,30.03
2018-02-22T01:20:03.217Z,28.70
2018-02-22T01:22:30.767Z,29.53
2018-02-22T01:24:58.304Z,28.20
2018-02-22T01:27:25.800Z,30.33
2018-02-22T01:29:54.088Z,26.10
2018-02-22T01:32:22.364Z,27.70
2018-02-22T01:34:49.924Z,26.50
2018-02-22T01:37:17.433Z,27.13
2018-02-22T01:39:44.980Z,25.60
2018-02-22T01:42:12.484Z,27.40
2018-02-22T01:44:40.767Z,26.60
2018-02-22T01:47:09.047Z,30.07
2018-02-22T01:49:36.567Z,26.67
2018-02-22T01:52:04.131Z,27.53
2018-02-22T01:54:31.641Z,25.62
2018-02-22T01:56:59.151Z,26.23
2018-02-22T01:59:27.450Z,28.73
2018-02-22T02:01:54.972Z,26.27
2018-02-22T02:04:22.491Z,28.77
2018-02-22T02:06:50.016Z,26.00
2018-02-22T02:09:17.551Z,27.60
2018-02-22T02:11:45.055Z,26.00
2018-02-22T02:14:12.595Z,28.00
2018-02-22T02:16:40.130Z,25.05
2018-02-22T02:19:08.439Z,26.52
2018-02-22T02:21:35.991Z,26.70
2018-02-22T02:24:03.509Z,26.90
2018-02-22T02:26:31.026Z,24.93
2018-02-22T02:28:58.577Z,25.25
2018-02-22T02:31:26.098Z,26.55
2018-02-22T02:33:54.377Z,27.23
2018-02-22T02:36:22.659Z,27.52
2018-02-22T02:38:50.958Z,27.40
2018-02-22T02:41:18.473Z,25.90
2018-02-22T02:43:46.009Z,25.40
2018-02-22T02:46:13.534Z,24.27
2018-02-22T02:48:41.072Z,27.20
2018-02-22T02:51:08.580Z,25.85
2018-02-22T02:53:36.124Z,24.40
2018-02-22T02:56:03.628Z,26.62
2018-02-22T02:58:31.128Z,24.20
2018-02-22T03:00:58.673Z,24.27
2018-02-22T03:03:26.182Z,24.55
2018-02-22T03:05:54.501Z,23.58
2018-02-22T03:08:21.996Z,23.87
2018-02-22T03:10:49.515Z,25.30
2018-02-22T03:13:17.025Z,25.20
2018-02-22T03:15:44.557Z,23.17
2018-02-22T03:18:12.059Z,25.20
2018-02-22T03:20:39.605Z,25.87
2018-02-22T03:23:07.121Z,23.70
2018-02-22T03:25:34.621Z,23.97
2018-02-22T03:28:02.144Z,24.67
2018-02-22T03:30:29.650Z,20.77
2018-02-22T03:32:57.950Z,25.83
2018-02-22T03:35:25.504Z,24.20
2018-02-22T03:37:53.004Z,23.98
2018-02-22T03:40:20.524Z,24.50
2018-02-22T03:42:48.068Z,23.13
2018-02-22T03:45:16.349Z,24.40
2018-02-22T03:47:44.616Z,25.90
2018-02-22T03:50:12.904Z,22.60
2018-02-22T03:52:40.407Z,24.00
2018-02-22T03:55:07.940Z,25.20
2018-02-22T03:57:35.452Z,24.90
2018-02-22T04:00:03.764Z,23.58
2018-02-22T04:02:31.271Z,23.67
2018-02-22T04:04:58.778Z,25.20
2018-02-22T04:07:26.344Z,24.58
2018-02-22T04:09:53.844Z,25.67
2018-02-22T04:12:21.376Z,23.92
2018-02-22T04:14:48.888Z,24.90
2018-02-22T04:17:17.430Z,23.90
2018-02-22T04:19:44.931Z,23.30
2018-02-22T04:22:23.151Z,24.40
2018-02-22T04:24:51.419Z,23.30
2018-02-22T04:27:18.951Z,23.90
2018-02-22T04:29:47.240Z,23.38
2018-02-22T04:32:15.532Z,21.00
2018-02-22T04:34:43.074Z,23.25
2018-02-22T04:37:11.391Z,18.98
2018-02-22T04:39:38.912Z,20.20
2018-02-22T04:42:07.215Z,21.73
2018-02-22T04:44:34.745Z,19.62
2018-02-22T04:47:03.024Z,19.20
2018-02-22T04:49:31.408Z,22.10
2018-02-22T04:51:59.017Z,21.10
2018-02-22T04:54:26.560Z,22.55
2018-02-22T04:56:54.110Z,19.48
2018-02-22T04:59:22.421Z,20.27
2018-02-22T05:01:49.958Z,20.40
2018-02-22T05:04:17.460Z,21.15
2018-02-22T05:06:45.753Z,21.05
2018-02-22T05:09:13.265Z,20.62
2018-02-22T05:11:40.804Z,20.27
2018-02-22T05:14:08.328Z,20.48
2018-02-22T05:16:36.629Z,19.08
2018-02-22T05:19:04.150Z,21.50
2018-02-22T05:21:32.431Z,19.50
2018-02-22T05:23:59.960Z,21.57
2018-02-22T05:26:27.484Z,19.85
2018-02-22T05:28:55.017Z,19.30
2018-02-22T05:31:22.516Z,20.57
2018-02-22T05:33:50.044Z,19.20
2018-02-22T05:36:17.561Z,21.08
2018-02-22T05:38:45.830Z,17.95
2018-02-22T05:41:13.362Z,20.60
2018-02-22T05:43:40.876Z,20.83
2018-02-22T05:46:08.416Z,19.58
2018-02-22T05:48:36.687Z,22.60
2018-02-22T05:51:04.998Z,21.90
2018-02-22T05:53:32.506Z,21.75
2018-02-22T05:56:00.040Z,20.62
2018-02-22T05:58:27.638Z,21.45
2018-02-22T06:00:55.147Z,19.35
2018-02-22T06:03:22.654Z,20.52
2018-02-22T06:05:50.992Z,20.55
2018-02-22T06:08:18.523Z,22.52
2018-02-22T06:10:46.032Z,24.33
2018-02-22T06:13:13.575Z,22.50
2018-02-22T06:15:41.075Z,20.23
2018-02-22T06:18:08.600Z,19.48
2018-02-22T06:20:36.115Z,20.80
2018-02-22T06:23:03.660Z,17.45
2018-02-22T06:25:31.168Z,20.02
2018-02-22T06:27:58.685Z,21.37
2018-02-22T06:30:26.233Z,18.77
2018-02-22T06:32:53.792Z,21.95
2018-02-22T06:35:22.078Z,22.17
2018-02-22T06:37:49.584Z,19.45
2018-02-22T06:40:17.111Z,21.48
2018-02-22T06:42:44.645Z,21.62
2018-02-22T06:45:12.154Z,20.12
2018-02-22T06:47:39.657Z,21.75
2018-02-22T06:50:07.206Z,21.08
2018-02-22T06:52:34.706Z,20.83
2018-02-22T06:55:02.238Z,23.17
2018-02-22T06:57:29.777Z,22.33
2018-02-22T06:59:57.303Z,22.67
2018-02-22T07:02:25.578Z,17.62
2018-02-22T07:04:53.107Z,21.77
2018-02-22T07:07:20.604Z,18.55
2018-02-22T07:09:48.910Z,21.42
2018-02-22T07:12:16.422Z,21.50
2018-02-22T07:14:43.951Z,20.70
2018-02-22T07:17:11.471Z,22.42
2018-02-22T07:19:39.007Z,18.77
2018-02-22T07:22:07.284Z,21.30
2018-02-22T07:24:35.605Z,21.23
2018-02-22T07:27:03.157Z,19.75
2018-02-22T07:29:30.659Z,19.50
2018-02-22T07:31:58.188Z,22.15
2018-02-22T07:34:25.698Z,20.05
2018-02-22T07:36:54.000Z,21.95
2018-02-22T07:39:21.522Z,20.33
2018-02-22T07:41:49.819Z,22.50
2018-02-22T07:44:18.092Z,19.77
2018-02-22T07:46:45.656Z,20.92
2018-02-22T07:49:13.147Z,21.00
2018-02-22T07:51:40.652Z,22.17
2018-02-22T07:54:08.941Z,20.87
2018-02-22T07:56:36.452Z,19.77
2018-02-22T07:59:04.006Z,21.75
2018-02-22T08:01:31.527Z,23.62
2018-02-22T08:03:59.088Z,21.80
2018-02-22T08:06:26.593Z,21.23
2018-02-22T08:08:54.100Z,23.93
2018-02-22T08:11:21.629Z,21.53
2018-02-22T08:13:49.921Z,23.30
2018-02-22T08:16:17.454Z,23.50
2018-02-22T08:18:44.958Z,21.23
2018-02-22T08:21:12.488Z,19.80
2018-02-22T08:23:40.761Z,21.60
2018-02-22T08:26:09.055Z,20.50
2018-02-22T08:28:36.587Z,20.60
2018-02-22T08:31:04.869Z,20.50
2018-02-22T08:33:33.207Z,22.57
2018-02-22T08:36:00.715Z,19.90
2018-02-22T08:38:28.256Z,20.33
2018-02-22T08:40:56.547Z,20.53
2018-02-22T08:43:24.147Z,20.70
2018-02-22T08:45:51.648Z,22.40
2018-02-22T08:48:19.913Z,19.63
2018-02-22T08:50:47.443Z,19.43
2018-02-22T08:53:14.954Z,21.40
2018-02-22T08:55:42.478Z,20.33
2018-02-22T08:58:10.004Z,19.42
2018-02-22T09:00:37.585Z,18.57
2018-02-22T09:03:05.865Z,18.70
2018-02-22T09:05:33.403Z,19.37
2018-02-22T09:08:00.941Z,19.73
2018-02-22T09:10:28.453Z,20.17
2018-02-22T09:12:55.972Z,20.57
2018-02-22T09:15:23.474Z,18.05
2018-02-22T09:17:51.785Z,19.50
2018-02-22T09:20:19.292Z,18.60
2018-02-22T09:22:46.801Z,18.00
2018-02-22T09:25:14.334Z,17.05
2018-02-22T09:27:42.595Z,16.27
2018-02-22T09:30:10.136Z,18.20
2018-02-22T09:32:37.646Z,17.77
2018-02-22T09:35:05.176Z,16.63
2018-02-22T09:37:33.456Z,17.30
2018-02-22T09:40:01.731Z,17.63
2018-02-22T09:42:30.032Z,19.13
2018-02-22T09:44:57.540Z,16.60
2018-02-22T09:47:25.076Z,19.97
2018-02-22T09:49:52.591Z,17.37
2018-02-22T09:52:20.132Z,17.13
2018-02-22T09:54:48.452Z,17.97
2018-02-22T09:57:15.972Z,17.50
2018-02-22T09:59:44.241Z,17.20
2018-02-22T10:02:11.786Z,17.70
2018-02-22T10:04:39.292Z,17.90
2018-02-22T10:07:06.804Z,17.23
2018-02-22T10:09:34.309Z,18.47
2018-02-22T10:12:01.815Z,17.60
2018-02-22T10:14:29.352Z,16.80
2018-02-22T10:16:56.857Z,18.60
2018-02-22T10:19:24.366Z,17.50
2018-02-22T10:21:51.898Z,14.70
2018-02-22T10:24:19.403Z,18.23
2018-02-22T10:26:46.928Z,16.83
2018-02-22T10:29:14.464Z,17.73
2018-02-22T10:31:41.982Z,17.57
2018-02-22T10:34:09.480Z,17.70
2018-02-22T10:36:37.023Z,18.50
2018-02-22T10:39:04.584Z,15.00
2018-02-22T10:41:32.850Z,18.10
2018-02-22T10:44:00.372Z,18.80
2018-02-22T10:46:27.889Z,16.97
2018-02-22T10:48:55.527Z,16.60
2018-02-22T10:51:23.844Z,18.13
2018-02-22T10:53:51.369Z,16.30
2018-02-22T10:56:18.868Z,16.97
2018-02-22T10:58:46.406Z,17.97
2018-02-22T11:01:19.511Z,17.00
2018-02-22T11:03:47.033Z,18.63
2018-02-22T11:06:14.558Z,19.60
2018-02-22T11:08:42.108Z,19.37
2018-02-22T11:11:09.646Z,17.47
2018-02-22T11:13:37.163Z,18.87
2018-02-22T11:16:04.712Z,18.37
2018-02-22T11:18:32.229Z,19.53
2018-02-22T11:20:59.784Z,17.27
2018-02-22T11:23:27.276Z,17.03
2018-02-22T11:25:54.832Z,19.43
2018-02-22T11:28:23.140Z,19.80
2018-02-22T11:30:50.661Z,18.10
2018-02-22T11:33:18.984Z,16.40
2018-02-22T11:35:46.490Z,16.93
2018-02-22T11:38:14.052Z,17.47
2018-02-22T11:40:41.583Z,16.47
2018-02-22T11:43:09.096Z,17.90
2018-02-22T11:45:36.646Z,17.60
2018-02-22T11:48:04.905Z,16.70
2018-02-22T11:50:33.204Z,18.60
2018-02-22T11:53:00.713Z,16.40
2018-02-22T11:55:29.769Z,17.90
2018-02-22T11:57:57.292Z,18.13
2018-02-22T12:00:25.573Z,16.50
2018-02-22T12:02:53.869Z,17.53
2018-02-22T12:05:21.449Z,16.00
2018-02-22T12:07:48.967Z,16.53
2018-02-22T12:10:17.236Z,17.03
2018-02-22T12:12:45.553Z,14.67
2018-02-22T12:15:13.064Z,16.00
2018-02-22T12:17:41.349Z,16.13
2018-02-22T12:20:09.650Z,14.80
2018-02-22T12:22:37.148Z,16.57
2018-02-22T12:25:04.704Z,16.50
2018-02-22T12:27:32.229Z,15.40
2018-02-22T12:29:59.756Z,14.30
2018-02-22T12:32:28.017Z,15.50
2018-02-22T12:34:56.309Z,13.20
2018-02-22T12:37:23.816Z,14.93
2018-02-22T12:39:51.357Z,15.60
2018-02-22T12:42:18.901Z,15.87
2018-02-22T12:44:46.394Z,13.50
2018-02-22T12:47:13.932Z,13.60
2018-02-22T12:49:41.431Z,13.00
2018-02-22T12:52:08.949Z,15.03
2018-02-22T12:54:36.460Z,14.10
2018-02-22T12:57:04.747Z,13.70
2018-02-22T12:59:33.028Z,14.27
2018-02-22T13:02:00.523Z,15.10
2018-02-22T13:04:28.063Z,13.83
2018-02-22T13:06:55.588Z,15.23
2018-02-22T13:09:23.891Z,14.37
2018-02-22T13:11:51.404Z,12.70
2018-02-22T13:14:18.955Z,14.03
2018-02-22T13:16:46.456Z,14.33
2018-02-22T13:19:13.986Z,15.03
2018-02-22T13:21:42.284Z,12.80
2018-02-22T13:24:09.812Z,13.47
2018-02-22T13:26:37.348Z,14.53
2018-02-22T13:29:04.857Z,14.50
2018-02-22T13:31:32.392Z,15.03
2018-02-22T13:34:21.408Z,14.67
2018-02-22T13:36:48.951Z,15.40
2018-02-22T13:39:16.488Z,12.80
2018-02-22T13:41:44.813Z,14.13
2018-02-22T13:44:24.380Z,13.63
2018-02-22T13:46:51.920Z,14.40
2018-02-22T13:49:31.495Z,14.30
2018-02-22T13:51:59.808Z,13.17
2018-02-22T13:54:27.377Z,14.47
2018-02-22T13:57:06.714Z,14.47
2018-02-22T13:59:34.256Z,12.90
2018-02-22T14:02:13.729Z,13.30
2018-02-22T14:04:41.273Z,11.87
2018-02-22T14:07:08.795Z,14.00
2018-02-22T14:09:36.323Z,12.70
2018-02-22T14:12:04.684Z,13.47
2018-02-22T14:14:32.304Z,13.67
2018-02-22T14:16:59.840Z,14.30
2018-02-22T14:19:27.374Z,14.27
2018-02-22T14:21:55.980Z,12.97
2018-02-22T14:24:24.294Z,15.13
2018-02-22T14:26:51.851Z,12.07
2018-02-22T14:29:19.394Z,13.07
2018-02-22T14:31:46.923Z,14.20
2018-02-22T14:34:15.199Z,14.13
2018-02-22T14:36:43.507Z,13.93
2018-02-22T14:39:11.007Z,14.80
2018-02-22T14:41:39.308Z,12.53
2018-02-22T14:44:07.583Z,15.07
2018-02-22T14:46:35.121Z,12.77
2018-02-22T14:49:02.634Z,12.80
2018-02-22T14:51:30.156Z,12.00
2018-02-22T14:53:57.707Z,12.70
2018-02-22T14:56:26.032Z,14.10
2018-02-22T14:58:53.563Z,13.10
2018-02-22T15:01:21.075Z,13.60
2018-02-22T15:03:48.599Z,13.17
2018-02-22T15:06:16.158Z,11.10
2018-02-22T15:08:43.689Z,11.37
2018-02-22T15:11:11.196Z,14.23
2018-02-22T15:13:38.742Z,13.60
2018-02-22T15:16:06.257Z,12.23
2018-02-22T15:18:33.762Z,12.60
2018-02-22T15:21:01.298Z,12.57
2018-02-22T15:23:28.796Z,12.53
2018-02-22T15:25:56.329Z,12.90
2018-02-22T15:28:23.852Z,13.00
2018-02-22T15:30:51.385Z,13.10
2018-02-22T15:33:19.688Z,11.53
2018-02-22T15:35:47.211Z,11.43
2018-02-22T15:38:14.740Z,11.63
2018-02-22T15:40:42.248Z,12.33
2018-02-22T15:43:10.553Z,12.57
2018-02-22T15:45:38.100Z,11.50
2018-02-22T15:48:05.654Z,12.20
2018-02-22T15:50:33.159Z,11.43
2018-02-22T15:53:00.679Z,11.87
2018-02-22T15:55:28.188Z,13.30
2018-02-22T15:57:55.709Z,12.37
2018-02-22T16:00:23.232Z,11.90
2018-02-22T16:02:50.729Z,11.47
2018-02-22T16:05:18.252Z,10.77
2018-02-22T16:07:45.810Z,11.80
2018-02-22T16:10:13.316Z,11.20
2018-02-22T16:12:40.832Z,11.67
2018-02-22T16:15:08.388Z,12.10
2018-02-22T16:17:35.898Z,14.30
2018-02-22T16:20:03.415Z,12.40
2018-02-22T16:22:30.959Z,12.20
2018-02-22T16:24:58.470Z,10.90
2018-02-22T16:27:26.073Z,11.13
2018-02-22T16:29:54.326Z,11.77
2018-02-22T16:32:22.657Z,12.87
2018-02-22T16:34:50.195Z,11.33
2018-02-22T16:37:17.749Z,11.10
2018-02-22T16:39:45.225Z,11.30
2018-02-22T16:42:12.747Z,9.40
2018-02-22T16:44:41.057Z,10.47
2018-02-22T16:47:08.572Z,9.80
2018-02-22T16:49:36.867Z,12.20
2018-02-22T16:52:04.394Z,11.33
2018-02-22T16:54:31.925Z,10.83
2018-02-22T16:56:59.449Z,12.50
2018-02-22T16:59:26.976Z,12.63
2018-02-22T17:01:55.260Z,12.00
2018-02-22T17:04:23.564Z,11.77
2018-02-22T17:06:51.106Z,11.50
2018-02-22T17:09:18.647Z,11.53
2018-02-22T17:11:46.929Z,11.20
2018-02-22T17:14:14.488Z,12.30
2018-02-22T17:16:42.012Z,10.20
2018-02-22T17:19:09.532Z,9.87
2018-02-22T17:21:37.086Z,11.17
2018-02-22T17:24:04.606Z,12.10
2018-02-22T17:26:37.986Z,12.83
2018-02-22T17:29:11.306Z,10.80
2018-02-22T17:31:45.306Z,10.93
2018-02-22T17:34:13.610Z,11.30
2018-02-22T17:36:46.887Z,12.47
2018-02-22T17:42:17.246Z,12.40
2018-02-22T17:44:44.760Z,11.03
2018-02-22T17:47:12.315Z,12.77
2018-02-22T17:49:39.853Z,11.70
2018-02-22T17:52:07.364Z,12.13
2018-02-22T17:54:34.931Z,12.37
2018-02-22T17:57:02.478Z,11.40
2018-02-22T17:59:30.586Z,12.80
2018-02-22T18:01:58.088Z,13.23
2018-02-22T18:04:26.396Z,11.87
2018-02-22T18:06:53.914Z,12.60
2018-02-22T18:09:21.491Z,13.40
2018-02-22T18:11:49.813Z,12.73
2018-02-22T18:14:17.340Z,12.40
2018-02-22T18:16:44.873Z,12.30
2018-02-22T18:19:13.176Z,11.80
2018-02-22T18:21:40.709Z,11.93
2018-02-22T18:24:08.984Z,13.67
2018-02-22T18:26:37.281Z,13.23
2018-02-22T18:29:04.795Z,12.13
2018-02-22T18:31:32.365Z,12.67
2018-02-22T18:33:59.889Z,12.03
2018-02-22T18:36:27.462Z,12.70
2018-02-22T18:39:00.800Z,11.57
2018-02-22T18:41:29.121Z,12.63
2018-02-22T18:44:02.435Z,14.40
2018-02-22T18:46:29.988Z,13.43
2018-02-22T18:48:57.536Z,12.53
2018-02-22T18:51:25.149Z,11.17
2018-02-22T18:53:53.448Z,12.20
2018-02-22T18:56:20.959Z,11.20
2018-02-22T18:58:48.543Z,12.80
2018-02-22T19:01:16.045Z,11.80
2018-02-22T19:03:43.562Z,12.67
2018-02-22T19:06:11.161Z,11.90
2018-02-22T19:08:38.658Z,9.93
2018-02-22T19:11:07.017Z,12.17
2018-02-22T19:13:34.539Z,12.77
2018-02-22T19:16:02.117Z,11.57
2018-02-22T19:18:29.630Z,12.40
2018-02-22T19:20:57.170Z,11.63
2018-02-22T19:23:25.463Z,12.07
2018-02-22T19:25:53.107Z,12.17
2018-02-22T19:28:20.613Z,10.53
2018-02-22T19:30:48.197Z,12.37
2018-02-22T19:33:15.763Z,12.20
2018-02-22T19:35:44.820Z,10.63
2018-02-22T19:38:12.392Z,11.20
2018-02-22T19:40:39.908Z,10.03
2018-02-22T19:43:07.450Z,10.20
2018-02-22T19:45:35.748Z,11.10
2018-02-22T19:48:03.322Z,11.47
2018-02-22T19:50:30.818Z,9.87
2018-02-22T19:52:58.368Z,10.57
2018-02-22T19:55:25.897Z,10.13
2018-02-22T19:57:53.442Z,9.20
2018-02-22T20:00:20.958Z,9.80
2018-02-22T20:02:49.216Z,9.57
2018-02-22T20:05:16.762Z,9.93
2018-02-22T20:07:44.310Z,10.70
2018-02-22T20:10:11.853Z,9.50
2018-02-22T20:12:39.374Z,10.27
2018-02-22T20:15:07.729Z,9.10
2018-02-22T20:17:35.248Z,11.07
2018-02-22T20:20:02.820Z,9.40
2018-02-22T20:22:30.342Z,9.57
2018-02-22T20:24:57.874Z,9.13
2018-02-22T20:27:25.388Z,10.00
2018-02-22T20:29:52.924Z,8.97
2018-02-22T20:32:20.467Z,9.23
2018-02-22T20:34:48.781Z,8.80
2018-02-22T20:37:16.310Z,10.10
2018-02-22T20:39:43.862Z,9.13
2018-02-22T20:42:12.153Z,8.80
2018-02-22T20:44:39.683Z,8.63
2018-02-22T20:47:07.978Z,9.73
2018-02-22T20:49:35.523Z,9.60
2018-02-22T20:52:03.071Z,8.87
2018-02-22T20:54:31.357Z,8.93
2018-02-22T20:56:58.890Z,8.67
2018-02-22T20:59:26.424Z,8.57
2018-02-22T21:01:53.957Z,9.03
2018-02-22T21:04:21.485Z,8.77
2018-02-22T21:06:49.837Z,8.30
2018-02-22T21:09:17.460Z,8.33
2018-02-22T21:11:44.994Z,9.97
2018-02-22T21:14:12.492Z,9.13
2018-02-22T21:16:40.013Z,8.70
2018-02-22T21:19:07.554Z,8.40
2018-02-22T21:21:35.913Z,8.77
2018-02-22T21:24:03.481Z,7.80
2018-02-22T21:26:30.997Z,9.40
2018-02-22T21:28:58.566Z,9.50
2018-02-22T21:31:26.112Z,8.97
2018-02-22T21:33:53.630Z,8.70
2018-02-22T21:36:21.933Z,8.47
2018-02-22T21:38:49.513Z,8.23
2018-02-22T21:41:17.052Z,8.83
2018-02-22T21:43:44.557Z,8.87
2018-02-22T21:46:12.101Z,10.57
2018-02-22T21:48:39.620Z,8.27
2018-02-22T21:51:07.149Z,8.40
2018-02-22T21:53:35.454Z,8.03
2018-02-22T21:56:02.996Z,8.60
2018-02-22T21:58:31.259Z,8.00
2018-02-22T22:00:59.578Z,8.77
2018-02-22T22:03:27.094Z,8.60
2018-02-22T22:05:54.656Z,7.73
2018-02-22T22:08:22.156Z,7.33
2018-02-22T22:10:49.689Z,9.03
2018-02-22T22:13:17.227Z,9.80
2018-02-22T22:15:44.768Z,8.47
2018-02-22T22:18:13.081Z,8.00
2018-02-22T22:20:41.160Z,8.00
2018-02-22T22:23:08.679Z,8.37
2018-02-22T22:25:36.959Z,8.83
2018-02-22T22:28:05.269Z,9.60
2018-02-22T22:30:32.776Z,7.80
2018-02-22T22:33:00.294Z,8.33
2018-02-22T22:35:27.873Z,6.90
2018-02-22T22:37:55.375Z,8.80
2018-02-22T22:40:22.900Z,9.70
2018-02-22T22:42:50.414Z,7.93
2018-02-22T22:45:17.972Z,9.20
2018-02-22T22:47:45.500Z,7.90
2018-02-22T22:50:13.825Z,8.60
2018-02-22T22:52:41.363Z,8.47
2018-02-22T22:55:08.909Z,7.43
2018-02-22T22:57:36.418Z,8.27
2018-02-22T23:00:03.998Z,7.90
2018-02-22T23:02:32.289Z,9.13
2018-02-22T23:04:59.789Z,9.07
2018-02-22T23:07:27.352Z,9.70
2018-02-22T23:09:54.866Z,7.70
2018-02-22T23:12:22.418Z,8.10
2018-02-22T23:14:50.684Z,7.77
2018-02-22T23:17:18.968Z,8.47
2018-02-22T23:19:47.261Z,8.97
2018-02-22T23:22:14.801Z,7.63
2018-02-22T23:24:43.073Z,7.00
2018-02-22T23:27:11.400Z,8.80
2018-02-22T23:29:38.973Z,8.40
2018-02-22T23:32:06.494Z,8.10
2018-02-22T23:34:34.027Z,7.80
2018-02-22T23:37:02.289Z,7.80
2018-02-22T23:39:30.616Z,8.47
2018-02-22T23:42:03.894Z,8.30
2018-02-22T23:44:31.413Z,8.07
2018-02-22T23:46:58.940Z,8.33
2018-02-22T23:49:26.441Z,8.20
2018-02-22T23:51:54.826Z,7.70
2018-02-22T23:54:23.085Z,8.00
2018-02-22T23:56:51.392Z,7.90
2018-02-22T23:59:18.920Z,7.90
